createdAt,value
2022-09-06T00:01:30.308Z,3.60
2022-09-06T00:03:57.373Z,4.47
2022-09-06T00:06:24.395Z,4.90
2022-09-06T00:08:51.325Z,5.20
2022-09-06T00:11:19.030Z,4.70
2022-09-06T00:13:47.150Z,4.43
2022-09-06T00:16:17.477Z,4.97
2022-09-06T00:18:44.948Z,4.68
2022-09-06T00:21:30.088Z,4.43
2022-09-06T00:23:57.349Z,4.10
2022-09-06T00:26:24.850Z,3.55
2022-09-06T00:28:51.845Z,4.72
2022-09-06T00:31:26.275Z,4.20
2022-09-06T00:33:53.983Z,4.43
2022-09-06T00:36:22.213Z,4.28
2022-09-06T00:38:49.365Z,3.75
2022-09-06T00:41:17.163Z,4.05
2022-09-06T00:43:44.410Z,4.28
2022-09-06T00:46:19.624Z,4.38
2022-09-06T00:48:49.023Z,5.30
2022-09-06T00:51:18.127Z,4.13
2022-09-06T00:53:45.296Z,4.53
2022-09-06T00:56:12.948Z,4.30
2022-09-06T00:58:40.111Z,3.95
2022-09-06T01:01:08.226Z,4.43
2022-09-06T01:03:37.435Z,3.88
2022-09-06T01:06:16.090Z,3.63
2022-09-06T01:08:52.466Z,3.90
2022-09-06T01:11:28.103Z,3.63
2022-09-06T01:14:33.271Z,3.85
2022-09-06T01:17:14.762Z,4.38
2022-09-06T01:19:59.405Z,4.10
2022-09-06T01:22:29.239Z,4.22
2022-09-06T01:25:02.351Z,3.67
2022-09-06T01:28:02.849Z,3.60
2022-09-06T01:30:33.933Z,4.00
2022-09-06T01:33:09.003Z,4.35
2022-09-06T01:35:46.212Z,4.60
2022-09-06T01:38:14.630Z,4.38
2022-09-06T01:40:41.577Z,4.55
2022-09-06T01:43:13.208Z,3.95
2022-09-06T01:46:02.078Z,4.63
2022-09-06T01:48:45.158Z,4.65
2022-09-06T01:51:21.238Z,4.70
2022-09-06T01:54:17.924Z,5.22
2022-09-06T01:56:53.928Z,4.20
2022-09-06T01:59:58.031Z,4.50
2022-09-06T02:02:34.177Z,4.40
2022-09-06T02:05:09.135Z,3.97
2022-09-06T02:07:38.424Z,4.03
2022-09-06T02:10:42.736Z,4.05
2022-09-06T02:13:12.156Z,4.25
2022-09-06T02:15:47.710Z,4.20
2022-09-06T02:18:24.376Z,4.18
2022-09-06T02:20:54.287Z,4.22
2022-09-06T02:23:32.762Z,4.38
2022-09-06T02:26:07.009Z,5.47
2022-09-06T02:28:34.372Z,4.95
2022-09-06T02:31:11.398Z,5.85
2022-09-06T02:33:39.555Z,6.28
2022-09-06T02:36:08.875Z,7.40
2022-09-06T02:38:38.949Z,6.30
2022-09-06T02:41:07.241Z,6.78
2022-09-06T02:43:34.743Z,7.18
2022-09-06T02:46:01.850Z,6.70
2022-09-06T02:48:29.046Z,6.57
2022-09-06T02:50:55.924Z,6.28
2022-09-06T02:53:22.983Z,7.00
2022-09-06T02:55:49.980Z,7.47
2022-09-06T02:58:17.144Z,7.40
2022-09-06T03:00:44.143Z,7.78
2022-09-06T03:03:11.141Z,8.27
2022-09-06T03:05:38.064Z,8.02
2022-09-06T03:08:05.257Z,8.98
2022-09-06T03:10:32.327Z,7.70
2022-09-06T03:12:59.525Z,8.52
2022-09-06T03:15:26.680Z,11.73
2022-09-06T03:17:58.144Z,10.75
2022-09-06T03:20:25.601Z,11.18
2022-09-06T03:22:52.709Z,11.98
2022-09-06T03:25:19.659Z,14.88
2022-09-06T03:27:46.661Z,16.77
2022-09-06T03:30:13.760Z,16.98
2022-09-06T03:32:40.851Z,18.08
2022-09-06T03:35:08.129Z,22.45
2022-09-06T03:37:35.291Z,20.15
2022-09-06T03:40:03.907Z,20.60
2022-09-06T03:42:31.038Z,17.98
2022-09-06T03:44:57.917Z,14.55
2022-09-06T03:47:24.944Z,13.30
2022-09-06T03:49:51.836Z,10.82
2022-09-06T03:52:18.725Z,9.90
2022-09-06T03:54:45.841Z,11.82
2022-09-06T03:57:12.753Z,12.82
2022-09-06T03:59:39.827Z,13.07
2022-09-06T04:02:06.882Z,12.77
2022-09-06T04:04:33.940Z,12.98
2022-09-06T04:07:00.860Z,13.80
2022-09-06T04:09:27.910Z,13.40
2022-09-06T04:11:54.959Z,14.45
2022-09-06T04:14:21.906Z,13.27
2022-09-06T04:16:49.937Z,12.93
2022-09-06T04:19:16.952Z,12.55
2022-09-06T04:21:43.934Z,12.77
2022-09-06T04:24:10.863Z,11.50
2022-09-06T04:26:38.662Z,12.23
2022-09-06T04:29:05.785Z,12.02
2022-09-06T04:31:37.194Z,13.35
2022-09-06T04:34:22.519Z,13.65
2022-09-06T04:36:53.736Z,13.52
2022-09-06T04:39:21.726Z,13.43
2022-09-06T04:41:49.379Z,14.73
2022-09-06T04:44:25.091Z,13.75
2022-09-06T04:47:23.161Z,18.60
2022-09-06T04:49:50.682Z,50.95
2022-09-06T04:52:18.340Z,39.83
2022-09-06T04:54:56.624Z,26.30
2022-09-06T04:57:30.825Z,18.63
2022-09-06T05:03:43.825Z,11.10
2022-09-06T05:06:31.521Z,7.95
2022-09-06T05:09:50.183Z,5.20
2022-09-06T05:12:27.521Z,4.47
2022-09-06T05:14:55.834Z,4.35
2022-09-06T05:17:26.489Z,3.78
2022-09-06T05:19:56.834Z,4.18
2022-09-06T05:22:37.254Z,4.20
2022-09-06T05:25:18.358Z,4.10
2022-09-06T05:27:46.884Z,4.53
2022-09-06T05:30:15.734Z,4.10
2022-09-06T05:33:09.706Z,4.15
2022-09-06T05:36:17.729Z,4.65
2022-09-06T05:38:54.579Z,4.40
2022-09-06T05:41:26.265Z,3.88
2022-09-06T05:44:31.587Z,3.50
2022-09-06T05:56:02.291Z,4.47
2022-09-06T05:59:10.501Z,4.00
2022-09-06T06:01:50.974Z,4.35
2022-09-06T06:04:37.569Z,3.72
2022-09-06T06:07:15.217Z,3.10
2022-09-06T06:09:42.864Z,2.30
2022-09-06T06:12:46.174Z,2.97
2022-09-06T06:15:25.599Z,1.83
2022-09-06T06:17:56.553Z,1.75
2022-09-06T06:20:38.771Z,1.30
2022-09-06T06:23:08.728Z,1.80
2022-09-06T06:25:35.939Z,1.15
2022-09-06T06:28:16.168Z,1.30
2022-09-06T06:30:50.531Z,1.70
2022-09-06T06:33:22.439Z,1.30
2022-09-06T06:36:42.753Z,1.42
2022-09-06T06:39:13.800Z,1.90
2022-09-06T06:42:26.841Z,1.30
2022-09-06T06:44:54.426Z,1.90
2022-09-06T06:47:21.737Z,1.70
2022-09-06T06:49:49.239Z,1.40
2022-09-06T06:52:17.645Z,1.35
2022-09-06T06:54:44.849Z,1.15
2022-09-06T06:57:12.856Z,1.13
2022-09-06T06:59:40.127Z,1.30
2022-09-06T07:02:07.845Z,1.63
2022-09-06T07:04:34.985Z,1.13
2022-09-06T07:12:44.862Z,0.80
2022-09-06T07:15:15.123Z,1.10
2022-09-06T07:18:04.980Z,1.10
2022-09-06T07:26:21.862Z,1.13
2022-09-06T07:28:55.441Z,1.10
2022-09-06T07:34:10.112Z,1.50
2022-09-06T07:36:44.235Z,1.42
2022-09-06T07:39:28.553Z,1.02
2022-09-06T07:42:04.149Z,1.02
2022-09-06T07:44:32.370Z,1.30
2022-09-06T07:55:34.174Z,1.00
2022-09-06T07:58:01.354Z,1.05
2022-09-06T08:00:28.502Z,1.75
2022-09-06T08:02:55.455Z,1.42
2022-09-06T08:10:57.782Z,1.52
2022-09-06T08:13:27.797Z,1.20
2022-09-06T08:16:06.400Z,1.27
2022-09-06T08:18:40.603Z,1.20
2022-09-06T08:21:13.155Z,1.08
2022-09-06T08:24:07.809Z,1.10
2022-09-06T08:26:36.950Z,1.20
2022-09-06T08:29:09.195Z,1.25
2022-09-06T08:31:40.165Z,1.48
2022-09-06T08:34:07.956Z,1.40
2022-09-06T08:36:36.221Z,1.13
2022-09-06T08:39:25.226Z,1.08
2022-09-06T08:42:01.682Z,1.73
2022-09-06T08:45:02.016Z,1.42
2022-09-06T08:47:30.483Z,1.13
2022-09-06T08:50:14.824Z,1.95
2022-09-06T08:56:06.989Z,1.80
2022-09-06T08:58:56.044Z,1.80
2022-09-06T09:01:51.472Z,1.50
2022-09-06T09:04:23.446Z,1.60
2022-09-06T09:06:57.516Z,1.20
2022-09-06T09:09:27.991Z,1.20
2022-09-06T09:11:56.594Z,1.20
2022-09-06T09:14:38.239Z,1.00
2022-09-06T09:17:16.527Z,1.00
2022-09-06T09:19:45.737Z,1.10
2022-09-06T09:22:18.784Z,0.93
2022-09-06T09:24:52.293Z,1.10
2022-09-06T09:33:03.632Z,1.40
2022-09-06T09:35:44.331Z,1.80
2022-09-06T09:38:22.748Z,1.90
2022-09-06T09:41:08.564Z,1.60
2022-09-06T09:43:42.813Z,1.60
2022-09-06T09:46:12.139Z,1.38
2022-09-06T09:57:08.093Z,1.15
2022-09-06T10:16:15.164Z,1.40
2022-09-06T11:40:56.277Z,1.00
2022-09-06T11:45:08.195Z,0.80
2022-09-06T12:25:24.610Z,1.13
2022-09-06T12:31:45.294Z,0.85
2022-09-06T12:34:44.287Z,1.17
2022-09-06T12:37:51.142Z,1.00
2022-09-06T12:40:24.284Z,1.02
2022-09-06T12:43:06.116Z,1.02
2022-09-06T12:45:49.186Z,1.00
2022-09-06T12:48:43.675Z,0.88
2022-09-06T12:51:31.845Z,1.10
2022-09-06T12:57:07.476Z,1.20
2022-09-06T13:02:23.483Z,0.93
2022-09-06T13:05:07.751Z,1.00
2022-09-06T13:07:40.957Z,1.20
2022-09-06T13:10:20.125Z,1.10
2022-09-06T13:12:53.186Z,1.23
2022-09-06T13:15:27.262Z,1.10
2022-09-06T13:18:17.307Z,1.30
2022-09-06T13:20:45.512Z,1.25
2022-09-06T13:23:22.314Z,1.10
2022-09-06T13:25:51.739Z,1.23
2022-09-06T13:28:45.136Z,1.20
2022-09-06T13:31:20.739Z,1.50
2022-09-06T13:33:58.499Z,1.23
2022-09-06T13:36:30.815Z,1.40
2022-09-06T13:38:59.874Z,1.40
2022-09-06T13:41:27.273Z,1.30
2022-09-06T13:44:22.327Z,1.05
2022-09-06T13:46:53.842Z,1.38
2022-09-06T13:49:21.357Z,1.52
2022-09-06T13:51:48.581Z,1.15
2022-09-06T13:54:16.619Z,1.20
2022-09-06T13:56:46.285Z,1.27
2022-09-06T13:59:13.977Z,1.30
2022-09-06T14:01:43.992Z,1.23
2022-09-06T14:04:22.310Z,1.17
2022-09-06T14:06:49.983Z,1.42
2022-09-06T14:09:17.993Z,1.40
2022-09-06T14:12:33.547Z,1.25
2022-09-06T14:15:01.285Z,1.40
2022-09-06T14:17:39.306Z,1.30
2022-09-06T14:20:10.442Z,1.45
2022-09-06T14:22:38.164Z,1.42
2022-09-06T14:27:48.935Z,1.30
2022-09-06T14:30:18.074Z,1.20
2022-09-06T14:32:48.474Z,1.45
2022-09-06T14:35:16.295Z,1.27
2022-09-06T14:37:54.086Z,1.70
2022-09-06T14:40:27.441Z,1.42
2022-09-06T14:42:57.275Z,1.48
2022-09-06T14:45:24.353Z,1.35
2022-09-06T14:47:52.568Z,1.58
2022-09-06T14:50:20.513Z,1.60
2022-09-06T14:52:51.784Z,1.40
2022-09-06T14:55:20.804Z,1.35
2022-09-06T14:57:48.677Z,1.30
2022-09-06T15:00:19.839Z,1.60
2022-09-06T15:02:48.133Z,1.30
2022-09-06T15:05:16.503Z,1.23
2022-09-06T15:07:44.338Z,1.45
2022-09-06T15:10:11.929Z,1.50
2022-09-06T15:12:39.054Z,1.13
2022-09-06T15:15:09.117Z,1.42
2022-09-06T15:17:42.866Z,1.35
2022-09-06T15:20:11.224Z,1.20
2022-09-06T15:22:43.241Z,1.50
2022-09-06T15:25:12.130Z,1.40
2022-09-06T15:27:40.453Z,1.40
2022-09-06T15:30:08.323Z,1.40
2022-09-06T15:32:37.052Z,1.50
2022-09-06T15:35:05.226Z,1.58
2022-09-06T15:37:32.795Z,1.73
2022-09-06T15:40:01.353Z,1.50
2022-09-06T15:42:37.156Z,1.42
2022-09-06T15:45:05.449Z,1.60
2022-09-06T15:47:35.599Z,1.52
2022-09-06T15:50:08.854Z,1.42
2022-09-06T15:52:41.270Z,1.40
2022-09-06T15:55:30.151Z,1.10
2022-09-06T15:58:10.963Z,1.58
2022-09-06T16:00:51.048Z,1.50
2022-09-06T16:03:21.623Z,1.85
2022-09-06T16:08:40.247Z,1.60
2022-09-06T16:11:21.427Z,1.50
2022-09-06T16:13:52.286Z,1.48
2022-09-06T16:16:21.063Z,1.20
2022-09-06T16:18:48.739Z,1.60
2022-09-06T16:21:26.118Z,1.88
2022-09-06T16:23:57.322Z,3.20
2022-09-06T16:26:31.966Z,2.25
2022-09-06T16:29:00.587Z,2.20
2022-09-06T16:31:31.447Z,1.83
2022-09-06T16:33:59.358Z,1.98
2022-09-06T16:36:33.451Z,1.92
2022-09-06T16:39:03.861Z,2.33
2022-09-06T16:41:31.284Z,2.28
2022-09-06T16:43:59.663Z,2.70
2022-09-06T16:46:31.629Z,2.45
2022-09-06T16:49:02.706Z,2.53
2022-09-06T16:51:31.919Z,2.40
2022-09-06T16:54:01.102Z,2.25
2022-09-06T16:56:33.636Z,2.33
2022-09-06T16:59:04.910Z,2.92
2022-09-06T17:01:33.221Z,2.90
2022-09-06T17:04:02.422Z,2.97
2022-09-06T17:06:31.479Z,3.17
2022-09-06T17:08:59.361Z,3.25
2022-09-06T17:11:27.902Z,4.07
2022-09-06T17:13:55.794Z,3.75
2022-09-06T17:16:42.227Z,3.78
2022-09-06T17:19:12.239Z,4.07
2022-09-06T17:21:40.424Z,5.05
2022-09-06T17:24:08.951Z,4.38
2022-09-06T17:26:37.943Z,5.10
2022-09-06T17:29:06.104Z,4.50
2022-09-06T17:31:37.972Z,4.45
2022-09-06T17:34:06.651Z,4.93
2022-09-06T17:36:35.386Z,5.25
2022-09-06T17:39:07.930Z,4.90
2022-09-06T17:41:42.727Z,5.25
2022-09-06T17:44:11.715Z,4.82
2022-09-06T17:46:51.957Z,4.95
2022-09-06T17:49:29.589Z,4.13
2022-09-06T17:51:57.609Z,4.35
2022-09-06T17:54:24.816Z,4.53
2022-09-06T17:56:52.777Z,4.60
2022-09-06T17:59:20.515Z,5.20
2022-09-06T18:01:47.924Z,4.72
2022-09-06T18:04:15.863Z,5.47
2022-09-06T18:06:46.573Z,5.35
2022-09-06T18:09:17.466Z,5.72
2022-09-06T18:11:48.544Z,6.32
2022-09-06T18:14:21.121Z,6.20
2022-09-06T18:16:54.351Z,6.22
2022-09-06T18:19:24.973Z,6.25
2022-09-06T18:21:52.903Z,6.68
2022-09-06T18:24:20.359Z,6.78
2022-09-06T18:26:48.242Z,10.88
2022-09-06T18:29:18.704Z,13.40
2022-09-06T18:31:45.969Z,13.05
2022-09-06T18:34:14.162Z,14.80
2022-09-06T18:36:42.639Z,14.90
2022-09-06T18:39:13.359Z,13.57
2022-09-06T18:41:59.780Z,12.02
2022-09-06T18:44:33.180Z,8.50
2022-09-06T18:47:08.445Z,8.43
2022-09-06T18:49:38.539Z,8.57
2022-09-06T18:52:09.009Z,7.05
2022-09-06T18:54:36.371Z,8.13
2022-09-06T18:57:04.635Z,7.40
2022-09-06T18:59:33.445Z,7.47
2022-09-06T19:02:01.302Z,7.95
2022-09-06T19:04:29.440Z,11.70
2022-09-06T19:06:56.935Z,11.20
2022-09-06T19:09:24.777Z,13.90
2022-09-06T19:11:54.138Z,12.57
2022-09-06T19:14:21.998Z,12.55
2022-09-06T19:16:51.960Z,21.08
2022-09-06T19:19:20.185Z,22.08
2022-09-06T19:21:47.411Z,19.15
2022-09-06T19:24:16.579Z,17.27
2022-09-06T19:26:45.688Z,16.25
2022-09-06T19:29:16.182Z,17.83
2022-09-06T19:31:45.100Z,13.30
2022-09-06T19:34:13.983Z,13.40
2022-09-06T19:36:41.206Z,8.55
2022-09-06T19:39:12.820Z,7.10
2022-09-06T19:41:45.420Z,9.60
2022-09-06T19:44:13.611Z,7.78
2022-09-06T19:46:45.777Z,8.18
2022-09-06T19:49:15.988Z,6.70
2022-09-06T19:51:45.933Z,6.88
2022-09-06T19:54:14.351Z,7.22
2022-09-06T19:56:41.663Z,8.73
2022-09-06T19:59:11.824Z,8.20
2022-09-06T20:01:40.839Z,7.85
2022-09-06T20:04:10.835Z,7.38
2022-09-06T20:06:38.904Z,5.75
2022-09-06T20:09:09.217Z,5.45
2022-09-06T20:11:38.345Z,4.78
2022-09-06T20:14:06.596Z,4.53
2022-09-06T20:16:35.298Z,4.60
2022-09-06T20:19:05.551Z,4.22
2022-09-06T20:21:32.714Z,4.07
2022-09-06T20:24:00.631Z,4.30
2022-09-06T20:26:30.587Z,3.90
2022-09-06T20:29:00.039Z,4.40
2022-09-06T20:31:29.937Z,5.55
2022-09-06T20:34:03.464Z,3.72
2022-09-06T20:36:30.945Z,3.83
2022-09-06T20:38:58.331Z,3.70
2022-09-06T20:41:27.249Z,3.25
2022-09-06T20:44:02.003Z,3.80
2022-09-06T20:46:32.424Z,3.28
2022-09-06T20:49:03.706Z,2.90
2022-09-06T20:51:31.747Z,2.85
2022-09-06T20:54:00.468Z,3.30
2022-09-06T20:56:39.154Z,3.15
2022-09-06T20:59:10.743Z,3.28
2022-09-06T21:01:43.620Z,3.00
2022-09-06T21:04:12.960Z,3.22
2022-09-06T21:06:41.101Z,2.95
2022-09-06T21:09:11.212Z,2.90
2022-09-06T21:11:39.732Z,2.90
2022-09-06T21:14:07.905Z,2.70
2022-09-06T21:16:35.727Z,2.70
2022-09-06T21:19:06.641Z,2.55
2022-09-06T21:21:35.283Z,3.30
2022-09-06T21:24:04.163Z,2.72
2022-09-06T21:26:31.448Z,2.72
2022-09-06T21:28:58.964Z,2.50
2022-09-06T21:31:31.725Z,2.38
2022-09-06T21:34:03.521Z,2.75
2022-09-06T21:36:34.061Z,2.80
2022-09-06T21:39:03.949Z,2.88
2022-09-06T21:41:31.771Z,2.75
2022-09-06T21:44:00.629Z,2.88
2022-09-06T21:46:33.347Z,2.60
2022-09-06T21:49:04.395Z,2.63
2022-09-06T21:51:32.642Z,2.45
2022-09-06T21:54:03.637Z,2.70
2022-09-06T21:56:32.354Z,3.00
2022-09-06T21:59:00.003Z,2.67
2022-09-06T22:01:29.794Z,2.67
2022-09-06T22:03:57.101Z,2.67
2022-09-06T22:06:26.621Z,2.58
2022-09-06T22:08:54.259Z,2.50
2022-09-06T22:11:27.055Z,2.17
2022-09-06T22:13:54.543Z,2.60
2022-09-06T22:16:22.627Z,2.78
2022-09-06T22:18:50.371Z,2.65
2022-09-06T22:21:21.129Z,2.42
2022-09-06T22:23:53.324Z,2.42
2022-09-06T22:26:20.987Z,2.45
2022-09-06T22:28:52.630Z,3.15
2022-09-06T22:31:19.820Z,2.58
2022-09-06T22:33:46.798Z,2.40
2022-09-06T22:36:13.811Z,2.88
2022-09-06T22:38:41.111Z,2.40
2022-09-06T22:41:09.390Z,2.13
2022-09-06T22:43:36.610Z,2.20
2022-09-06T22:46:10.758Z,2.50
2022-09-06T22:48:37.787Z,2.53
2022-09-06T22:51:09.027Z,2.38
2022-09-06T22:53:36.551Z,2.65
2022-09-06T22:56:03.979Z,2.88
2022-09-06T22:58:31.169Z,2.33
2022-09-06T23:01:07.320Z,2.40
2022-09-06T23:03:35.446Z,2.72
2022-09-06T23:06:02.886Z,2.67
2022-09-06T23:08:30.492Z,2.70
2022-09-06T23:10:57.710Z,2.28
2022-09-06T23:13:24.697Z,2.97
2022-09-06T23:15:51.806Z,2.45
2022-09-06T23:18:19.034Z,2.50
2022-09-06T23:20:46.162Z,2.53
2022-09-06T23:23:13.802Z,2.60
2022-09-06T23:25:40.804Z,3.10
2022-09-06T23:28:07.903Z,2.65
2022-09-06T23:30:38.379Z,2.67
2022-09-06T23:33:05.779Z,2.85
2022-09-06T23:35:32.825Z,2.58
2022-09-06T23:38:00.005Z,2.60
2022-09-06T23:40:27.011Z,2.58
2022-09-06T23:42:54.048Z,2.33
2022-09-06T23:45:21.104Z,2.88
2022-09-06T23:47:48.079Z,2.72
2022-09-06T23:50:15.344Z,2.78
2022-09-06T23:52:42.415Z,2.70
2022-09-06T23:55:09.803Z,2.70
2022-09-06T23:57:37.224Z,3.00
